sensor_id;sensor_type;location;lat;lon;timestamp;P1;durP1;ratioP1;P2;durP2;ratioP2
22774;SDS011;11554;51.106;3.684;2023-04-24T00:00:00;16.40;;;9.90;;
22774;SDS011;11554;51.106;3.684;2023-04-24T00:05:01;17.00;;;11.30;;
22774;SDS011;11554;51.106;3.684;2023-04-24T00:10:00;17.00;;;11.30;;
22774;SDS011;11554;51.106;3.684;2023-04-24T00:15:01;19.70;;;13.20;;
22774;SDS011;11554;51.106;3.684;2023-04-24T00:20:00;19.70;;;13.20;;
22774;SDS011;11554;51.106;3.684;2023-04-24T00:25:00;16.80;;;12.60;;
22774;SDS011;11554;51.106;3.684;2023-04-24T00:30:00;16.80;;;12.60;;
22774;SDS011;11554;51.106;3.684;2023-04-24T00:35:00;11.00;;;9.40;;
22774;SDS011;11554;51.106;3.684;2023-04-24T00:40:00;11.00;;;9.40;;
22774;SDS011;11554;51.106;3.684;2023-04-24T00:45:00;11.30;;;9.00;;
22774;SDS011;11554;51.106;3.684;2023-04-24T00:50:01;11.30;;;9.00;;
22774;SDS011;11554;51.106;3.684;2023-04-24T00:55:00;12.50;;;8.10;;
22774;SDS011;11554;51.106;3.684;2023-04-24T01:00:00;12.50;;;8.10;;
22774;SDS011;11554;51.106;3.684;2023-04-24T01:05:00;11.10;;;8.40;;
22774;SDS011;11554;51.106;3.684;2023-04-24T01:10:00;11.10;;;8.40;;
22774;SDS011;11554;51.106;3.684;2023-04-24T01:15:00;11.90;;;8.90;;
22774;SDS011;11554;51.106;3.684;2023-04-24T01:20:00;11.90;;;8.90;;
22774;SDS011;11554;51.106;3.684;2023-04-24T01:25:01;13.30;;;11.30;;
22774;SDS011;11554;51.106;3.684;2023-04-24T01:30:00;13.30;;;11.30;;
22774;SDS011;11554;51.106;3.684;2023-04-24T01:35:01;15.40;;;11.80;;
22774;SDS011;11554;51.106;3.684;2023-04-24T01:40:00;15.40;;;11.80;;
22774;SDS011;11554;51.106;3.684;2023-04-24T01:45:02;14.70;;;12.10;;
22774;SDS011;11554;51.106;3.684;2023-04-24T01:50:00;14.70;;;12.10;;
22774;SDS011;11554;51.106;3.684;2023-04-24T01:55:01;16.60;;;12.50;;
22774;SDS011;11554;51.106;3.684;2023-04-24T02:00:00;16.60;;;12.50;;
22774;SDS011;11554;51.106;3.684;2023-04-24T02:05:00;14.40;;;11.60;;
22774;SDS011;11554;51.106;3.684;2023-04-24T02:10:00;14.40;;;11.60;;
22774;SDS011;11554;51.106;3.684;2023-04-24T02:15:00;16.10;;;12.40;;
22774;SDS011;11554;51.106;3.684;2023-04-24T02:20:00;16.10;;;12.40;;
22774;SDS011;11554;51.106;3.684;2023-04-24T02:25:01;12.40;;;8.90;;
22774;SDS011;11554;51.106;3.684;2023-04-24T02:30:00;12.40;;;8.90;;
22774;SDS011;11554;51.106;3.684;2023-04-24T02:35:00;12.00;;;9.10;;
22774;SDS011;11554;51.106;3.684;2023-04-24T02:40:00;12.00;;;9.10;;
22774;SDS011;11554;51.106;3.684;2023-04-24T02:45:00;5.20;;;2.80;;
22774;SDS011;11554;51.106;3.684;2023-04-24T02:50:00;5.20;;;2.80;;
22774;SDS011;11554;51.106;3.684;2023-04-24T02:55:00;6.40;;;2.70;;
22774;SDS011;11554;51.106;3.684;2023-04-24T03:00:00;6.40;;;2.70;;
22774;SDS011;11554;51.106;3.684;2023-04-24T03:05:00;9.70;;;3.10;;
22774;SDS011;11554;51.106;3.684;2023-04-24T03:10:00;9.70;;;3.10;;
22774;SDS011;11554;51.106;3.684;2023-04-24T03:15:00;6.10;;;3.60;;
22774;SDS011;11554;51.106;3.684;2023-04-24T03:20:00;6.10;;;3.60;;
22774;SDS011;11554;51.106;3.684;2023-04-24T03:25:01;11.70;;;5.00;;
22774;SDS011;11554;51.106;3.684;2023-04-24T03:30:00;11.70;;;5.00;;
22774;SDS011;11554;51.106;3.684;2023-04-24T03:35:00;9.90;;;5.70;;
22774;SDS011;11554;51.106;3.684;2023-04-24T03:40:00;9.90;;;5.70;;
22774;SDS011;11554;51.106;3.684;2023-04-24T03:45:00;14.90;;;7.50;;
22774;SDS011;11554;51.106;3.684;2023-04-24T03:50:00;14.90;;;7.50;;
22774;SDS011;11554;51.106;3.684;2023-04-24T03:55:00;13.10;;;7.30;;
22774;SDS011;11554;51.106;3.684;2023-04-24T04:00:00;13.10;;;7.30;;
22774;SDS011;11554;51.106;3.684;2023-04-24T04:05:00;13.80;;;7.40;;
22774;SDS011;11554;51.106;3.684;2023-04-24T04:10:00;13.80;;;7.40;;
22774;SDS011;11554;51.106;3.684;2023-04-24T04:15:00;13.00;;;7.40;;
22774;SDS011;11554;51.106;3.684;2023-04-24T04:20:00;13.00;;;7.40;;
22774;SDS011;11554;51.106;3.684;2023-04-24T04:25:00;14.50;;;7.50;;
22774;SDS011;11554;51.106;3.684;2023-04-24T04:30:01;14.50;;;7.50;;
22774;SDS011;11554;51.106;3.684;2023-04-24T04:35:01;12.30;;;6.70;;
22774;SDS011;11554;51.106;3.684;2023-04-24T04:40:00;12.30;;;6.70;;
22774;SDS011;11554;51.106;3.684;2023-04-24T04:45:00;10.20;;;5.70;;
22774;SDS011;11554;51.106;3.684;2023-04-24T04:50:01;10.20;;;5.70;;
22774;SDS011;11554;51.106;3.684;2023-04-24T04:55:00;15.70;;;7.30;;
22774;SDS011;11554;51.106;3.684;2023-04-24T05:00:00;15.70;;;7.30;;
22774;SDS011;11554;51.106;3.684;2023-04-24T05:05:00;9.90;;;5.90;;
22774;SDS011;11554;51.106;3.684;2023-04-24T05:10:00;9.90;;;5.90;;
22774;SDS011;11554;51.106;3.684;2023-04-24T05:15:00;14.00;;;7.80;;
22774;SDS011;11554;51.106;3.684;2023-04-24T05:20:00;14.00;;;7.80;;
22774;SDS011;11554;51.106;3.684;2023-04-24T05:25:00;16.50;;;9.60;;
22774;SDS011;11554;51.106;3.684;2023-04-24T05:30:00;16.50;;;9.60;;
22774;SDS011;11554;51.106;3.684;2023-04-24T05:35:00;16.00;;;9.40;;
22774;SDS011;11554;51.106;3.684;2023-04-24T05:40:00;16.00;;;9.40;;
22774;SDS011;11554;51.106;3.684;2023-04-24T05:45:00;17.40;;;8.00;;
22774;SDS011;11554;51.106;3.684;2023-04-24T05:50:00;17.40;;;8.00;;
22774;SDS011;11554;51.106;3.684;2023-04-24T05:55:00;20.20;;;10.60;;
22774;SDS011;11554;51.106;3.684;2023-04-24T06:00:00;20.20;;;10.60;;
22774;SDS011;11554;51.106;3.684;2023-04-24T06:05:00;19.90;;;10.80;;
22774;SDS011;11554;51.106;3.684;2023-04-24T06:10:00;19.90;;;10.80;;
22774;SDS011;11554;51.106;3.684;2023-04-24T06:15:00;21.20;;;11.30;;
22774;SDS011;11554;51.106;3.684;2023-04-24T06:20:00;21.20;;;11.30;;
22774;SDS011;11554;51.106;3.684;2023-04-24T06:25:00;17.30;;;8.30;;
22774;SDS011;11554;51.106;3.684;2023-04-24T06:30:00;17.30;;;8.30;;
22774;SDS011;11554;51.106;3.684;2023-04-24T06:35:00;21.70;;;9.00;;
22774;SDS011;11554;51.106;3.684;2023-04-24T06:40:00;21.70;;;9.00;;
22774;SDS011;11554;51.106;3.684;2023-04-24T06:45:00;18.10;;;7.20;;
22774;SDS011;11554;51.106;3.684;2023-04-24T06:50:00;18.10;;;7.20;;
22774;SDS011;11554;51.106;3.684;2023-04-24T06:55:00;16.20;;;6.50;;
22774;SDS011;11554;51.106;3.684;2023-04-24T07:00:00;16.20;;;6.50;;
22774;SDS011;11554;51.106;3.684;2023-04-24T07:05:00;14.80;;;4.70;;
22774;SDS011;11554;51.106;3.684;2023-04-24T07:10:00;14.80;;;4.70;;
22774;SDS011;11554;51.106;3.684;2023-04-24T07:15:00;15.70;;;5.00;;
22774;SDS011;11554;51.106;3.684;2023-04-24T07:20:00;15.70;;;5.00;;
22774;SDS011;11554;51.106;3.684;2023-04-24T07:25:00;12.20;;;4.30;;
22774;SDS011;11554;51.106;3.684;2023-04-24T07:30:00;12.20;;;4.30;;
22774;SDS011;11554;51.106;3.684;2023-04-24T07:35:00;12.90;;;3.40;;
22774;SDS011;11554;51.106;3.684;2023-04-24T07:40:00;12.90;;;3.40;;
22774;SDS011;11554;51.106;3.684;2023-04-24T07:45:00;15.60;;;3.80;;
22774;SDS011;11554;51.106;3.684;2023-04-24T07:50:00;15.60;;;3.80;;
22774;SDS011;11554;51.106;3.684;2023-04-24T07:55:00;16.60;;;5.10;;
22774;SDS011;11554;51.106;3.684;2023-04-24T08:00:00;16.60;;;5.10;;
22774;SDS011;11554;51.106;3.684;2023-04-24T08:05:00;14.60;;;5.50;;
22774;SDS011;11554;51.106;3.684;2023-04-24T08:10:00;14.60;;;5.50;;
22774;SDS011;11554;51.106;3.684;2023-04-24T08:15:00;12.70;;;4.30;;
22774;SDS011;11554;51.106;3.684;2023-04-24T08:20:00;12.70;;;4.30;;
22774;SDS011;11554;51.106;3.684;2023-04-24T08:25:00;11.40;;;4.30;;
22774;SDS011;11554;51.106;3.684;2023-04-24T08:30:00;11.40;;;4.30;;
22774;SDS011;11554;51.106;3.684;2023-04-24T08:35:00;8.00;;;3.20;;
22774;SDS011;11554;51.106;3.684;2023-04-24T08:40:01;8.00;;;3.20;;
22774;SDS011;11554;51.106;3.684;2023-04-24T08:45:00;8.40;;;2.60;;
22774;SDS011;11554;51.106;3.684;2023-04-24T08:50:02;8.40;;;2.60;;
22774;SDS011;11554;51.106;3.684;2023-04-24T08:55:01;9.60;;;3.00;;
22774;SDS011;11554;51.106;3.684;2023-04-24T09:00:01;9.60;;;3.00;;
22774;SDS011;11554;51.106;3.684;2023-04-24T09:05:01;7.80;;;3.80;;
22774;SDS011;11554;51.106;3.684;2023-04-24T09:10:01;7.80;;;3.80;;
22774;SDS011;11554;51.106;3.684;2023-04-24T09:15:02;11.50;;;4.30;;
22774;SDS011;11554;51.106;3.684;2023-04-24T09:20:00;11.50;;;4.30;;
22774;SDS011;11554;51.106;3.684;2023-04-24T09:25:02;11.10;;;3.40;;
22774;SDS011;11554;51.106;3.684;2023-04-24T09:30:01;11.10;;;3.40;;
22774;SDS011;11554;51.106;3.684;2023-04-24T09:35:09;8.90;;;3.30;;
22774;SDS011;11554;51.106;3.684;2023-04-24T09:40:11;8.90;;;3.30;;
22774;SDS011;11554;51.106;3.684;2023-04-24T09:45:01;7.00;;;3.10;;
22774;SDS011;11554;51.106;3.684;2023-04-24T09:50:09;7.00;;;3.10;;
22774;SDS011;11554;51.106;3.684;2023-04-24T09:55:00;7.80;;;3.60;;
22774;SDS011;11554;51.106;3.684;2023-04-24T10:00:00;7.80;;;3.60;;
22774;SDS011;11554;51.106;3.684;2023-04-24T10:05:00;9.90;;;3.70;;
22774;SDS011;11554;51.106;3.684;2023-04-24T10:10:01;9.90;;;3.70;;
22774;SDS011;11554;51.106;3.684;2023-04-24T10:15:01;9.10;;;3.50;;
22774;SDS011;11554;51.106;3.684;2023-04-24T10:20:00;9.10;;;3.50;;
22774;SDS011;11554;51.106;3.684;2023-04-24T10:25:03;8.30;;;3.40;;
22774;SDS011;11554;51.106;3.684;2023-04-24T10:30:01;8.30;;;3.40;;
22774;SDS011;11554;51.106;3.684;2023-04-24T10:35:00;6.70;;;2.70;;
22774;SDS011;11554;51.106;3.684;2023-04-24T10:40:00;6.70;;;2.70;;
22774;SDS011;11554;51.106;3.684;2023-04-24T10:45:04;8.50;;;2.90;;
22774;SDS011;11554;51.106;3.684;2023-04-24T10:50:00;8.50;;;2.90;;
22774;SDS011;11554;51.106;3.684;2023-04-24T10:55:01;7.10;;;2.40;;
22774;SDS011;11554;51.106;3.684;2023-04-24T11:00:13;7.10;;;2.40;;
22774;SDS011;11554;51.106;3.684;2023-04-24T11:05:02;5.10;;;2.20;;
22774;SDS011;11554;51.106;3.684;2023-04-24T11:10:00;5.10;;;2.20;;
22774;SDS011;11554;51.106;3.684;2023-04-24T11:15:01;5.80;;;2.50;;
22774;SDS011;11554;51.106;3.684;2023-04-24T11:20:01;5.80;;;2.50;;
22774;SDS011;11554;51.106;3.684;2023-04-24T11:25:01;6.60;;;2.60;;
22774;SDS011;11554;51.106;3.684;2023-04-24T11:30:02;6.60;;;2.60;;
22774;SDS011;11554;51.106;3.684;2023-04-24T11:35:02;5.20;;;2.10;;
22774;SDS011;11554;51.106;3.684;2023-04-24T11:40:00;5.20;;;2.10;;
22774;SDS011;11554;51.106;3.684;2023-04-24T11:45:00;5.20;;;2.40;;
22774;SDS011;11554;51.106;3.684;2023-04-24T11:50:01;5.20;;;2.40;;
22774;SDS011;11554;51.106;3.684;2023-04-24T11:55:00;5.00;;;2.10;;
22774;SDS011;11554;51.106;3.684;2023-04-24T12:00:00;5.00;;;2.10;;
22774;SDS011;11554;51.106;3.684;2023-04-24T12:05:00;6.30;;;1.80;;
22774;SDS011;11554;51.106;3.684;2023-04-24T12:10:00;6.30;;;1.80;;
22774;SDS011;11554;51.106;3.684;2023-04-24T12:15:01;6.30;;;2.10;;
22774;SDS011;11554;51.106;3.684;2023-04-24T12:20:03;6.30;;;2.10;;
22774;SDS011;11554;51.106;3.684;2023-04-24T12:25:02;5.40;;;1.50;;
22774;SDS011;11554;51.106;3.684;2023-04-24T12:30:02;5.40;;;1.50;;
22774;SDS011;11554;51.106;3.684;2023-04-24T12:35:00;4.80;;;1.20;;
22774;SDS011;11554;51.106;3.684;2023-04-24T12:40:02;4.80;;;1.20;;
22774;SDS011;11554;51.106;3.684;2023-04-24T12:45:02;4.20;;;1.40;;
22774;SDS011;11554;51.106;3.684;2023-04-24T12:50:01;4.20;;;1.40;;
22774;SDS011;11554;51.106;3.684;2023-04-24T12:55:00;3.30;;;0.90;;
22774;SDS011;11554;51.106;3.684;2023-04-24T13:00:00;3.30;;;0.90;;
22774;SDS011;11554;51.106;3.684;2023-04-24T13:05:01;3.00;;;1.00;;
22774;SDS011;11554;51.106;3.684;2023-04-24T13:10:00;3.00;;;1.00;;
22774;SDS011;11554;51.106;3.684;2023-04-24T13:15:00;3.50;;;1.20;;
22774;SDS011;11554;51.106;3.684;2023-04-24T13:20:00;3.50;;;1.20;;
22774;SDS011;11554;51.106;3.684;2023-04-24T13:25:00;6.40;;;1.40;;
22774;SDS011;11554;51.106;3.684;2023-04-24T13:30:00;6.40;;;1.40;;
22774;SDS011;11554;51.106;3.684;2023-04-24T13:35:00;3.80;;;0.90;;
22774;SDS011;11554;51.106;3.684;2023-04-24T13:40:00;3.80;;;0.90;;
22774;SDS011;11554;51.106;3.684;2023-04-24T13:45:00;2.60;;;0.80;;
22774;SDS011;11554;51.106;3.684;2023-04-24T13:50:00;2.60;;;0.80;;
22774;SDS011;11554;51.106;3.684;2023-04-24T13:55:00;4.50;;;1.00;;
22774;SDS011;11554;51.106;3.684;2023-04-24T14:00:00;4.50;;;1.00;;
22774;SDS011;11554;51.106;3.684;2023-04-24T14:05:00;3.30;;;0.90;;
22774;SDS011;11554;51.106;3.684;2023-04-24T14:10:00;3.30;;;0.90;;
22774;SDS011;11554;51.106;3.684;2023-04-24T14:15:00;4.30;;;1.10;;
22774;SDS011;11554;51.106;3.684;2023-04-24T14:20:00;4.30;;;1.10;;
22774;SDS011;11554;51.106;3.684;2023-04-24T14:25:00;3.80;;;1.00;;
22774;SDS011;11554;51.106;3.684;2023-04-24T14:30:00;3.80;;;1.00;;
22774;SDS011;11554;51.106;3.684;2023-04-24T14:35:00;6.80;;;1.30;;
22774;SDS011;11554;51.106;3.684;2023-04-24T14:40:00;6.80;;;1.30;;
22774;SDS011;11554;51.106;3.684;2023-04-24T14:45:00;8.50;;;1.60;;
22774;SDS011;11554;51.106;3.684;2023-04-24T14:50:00;8.50;;;1.60;;
22774;SDS011;11554;51.106;3.684;2023-04-24T14:55:00;4.30;;;1.30;;
22774;SDS011;11554;51.106;3.684;2023-04-24T15:00:00;4.30;;;1.30;;
22774;SDS011;11554;51.106;3.684;2023-04-24T15:05:00;4.70;;;1.60;;
22774;SDS011;11554;51.106;3.684;2023-04-24T15:10:00;4.70;;;1.60;;
22774;SDS011;11554;51.106;3.684;2023-04-24T15:15:00;4.80;;;1.80;;
22774;SDS011;11554;51.106;3.684;2023-04-24T15:20:00;4.80;;;1.80;;
22774;SDS011;11554;51.106;3.684;2023-04-24T15:25:00;4.50;;;1.70;;
22774;SDS011;11554;51.106;3.684;2023-04-24T15:30:01;4.50;;;1.70;;
22774;SDS011;11554;51.106;3.684;2023-04-24T15:35:00;5.00;;;1.70;;
22774;SDS011;11554;51.106;3.684;2023-04-24T15:40:00;5.00;;;1.70;;
22774;SDS011;11554;51.106;3.684;2023-04-24T15:45:00;4.80;;;1.70;;
22774;SDS011;11554;51.106;3.684;2023-04-24T15:50:00;4.80;;;1.70;;
22774;SDS011;11554;51.106;3.684;2023-04-24T15:55:02;4.60;;;1.80;;
22774;SDS011;11554;51.106;3.684;2023-04-24T16:00:01;4.60;;;1.80;;
22774;SDS011;11554;51.106;3.684;2023-04-24T16:05:00;4.20;;;1.80;;
22774;SDS011;11554;51.106;3.684;2023-04-24T16:10:00;4.20;;;1.80;;
22774;SDS011;11554;51.106;3.684;2023-04-24T16:15:00;4.40;;;1.90;;
22774;SDS011;11554;51.106;3.684;2023-04-24T16:20:00;4.40;;;1.90;;
22774;SDS011;11554;51.106;3.684;2023-04-24T16:25:00;6.50;;;1.80;;
22774;SDS011;11554;51.106;3.684;2023-04-24T16:30:00;6.50;;;1.80;;
22774;SDS011;11554;51.106;3.684;2023-04-24T16:35:00;5.30;;;2.00;;
22774;SDS011;11554;51.106;3.684;2023-04-24T16:40:00;5.30;;;2.00;;
22774;SDS011;11554;51.106;3.684;2023-04-24T16:45:00;7.60;;;2.20;;
22774;SDS011;11554;51.106;3.684;2023-04-24T16:50:00;7.60;;;2.20;;
22774;SDS011;11554;51.106;3.684;2023-04-24T16:55:00;6.50;;;2.40;;
22774;SDS011;11554;51.106;3.684;2023-04-24T17:00:00;6.50;;;2.40;;
22774;SDS011;11554;51.106;3.684;2023-04-24T17:05:00;5.70;;;2.30;;
22774;SDS011;11554;51.106;3.684;2023-04-24T17:10:00;5.70;;;2.30;;
22774;SDS011;11554;51.106;3.684;2023-04-24T17:15:00;6.40;;;2.40;;
22774;SDS011;11554;51.106;3.684;2023-04-24T17:20:00;6.40;;;2.40;;
22774;SDS011;11554;51.106;3.684;2023-04-24T17:25:00;6.50;;;2.40;;
22774;SDS011;11554;51.106;3.684;2023-04-24T17:30:00;6.50;;;2.40;;
22774;SDS011;11554;51.106;3.684;2023-04-24T17:35:00;6.50;;;2.20;;
22774;SDS011;11554;51.106;3.684;2023-04-24T17:40:00;6.50;;;2.20;;
22774;SDS011;11554;51.106;3.684;2023-04-24T17:45:00;5.50;;;2.20;;
22774;SDS011;11554;51.106;3.684;2023-04-24T17:50:00;5.50;;;2.20;;
22774;SDS011;11554;51.106;3.684;2023-04-24T17:55:00;7.20;;;2.60;;
22774;SDS011;11554;51.106;3.684;2023-04-24T18:00:00;7.20;;;2.60;;
22774;SDS011;11554;51.106;3.684;2023-04-24T18:05:00;5.90;;;2.60;;
22774;SDS011;11554;51.106;3.684;2023-04-24T18:10:00;5.90;;;2.60;;
22774;SDS011;11554;51.106;3.684;2023-04-24T18:15:00;7.30;;;2.90;;
22774;SDS011;11554;51.106;3.684;2023-04-24T18:20:00;7.30;;;2.90;;
22774;SDS011;11554;51.106;3.684;2023-04-24T18:25:00;8.90;;;3.20;;
22774;SDS011;11554;51.106;3.684;2023-04-24T18:30:00;8.90;;;3.20;;
22774;SDS011;11554;51.106;3.684;2023-04-24T18:35:01;7.80;;;3.20;;
22774;SDS011;11554;51.106;3.684;2023-04-24T18:40:00;7.80;;;3.20;;
22774;SDS011;11554;51.106;3.684;2023-04-24T18:45:00;10.00;;;3.30;;
22774;SDS011;11554;51.106;3.684;2023-04-24T18:50:00;10.00;;;3.30;;
22774;SDS011;11554;51.106;3.684;2023-04-24T18:55:01;10.50;;;3.20;;
22774;SDS011;11554;51.106;3.684;2023-04-24T19:00:00;10.50;;;3.20;;
22774;SDS011;11554;51.106;3.684;2023-04-24T19:05:00;13.10;;;3.60;;
22774;SDS011;11554;51.106;3.684;2023-04-24T19:10:00;13.10;;;3.60;;
22774;SDS011;11554;51.106;3.684;2023-04-24T19:15:00;10.90;;;3.90;;
22774;SDS011;11554;51.106;3.684;2023-04-24T19:20:00;10.90;;;3.90;;
22774;SDS011;11554;51.106;3.684;2023-04-24T19:25:00;10.30;;;3.70;;
22774;SDS011;11554;51.106;3.684;2023-04-24T19:30:00;10.30;;;3.70;;
22774;SDS011;11554;51.106;3.684;2023-04-24T19:35:00;10.20;;;3.60;;
22774;SDS011;11554;51.106;3.684;2023-04-24T19:40:00;10.20;;;3.60;;
22774;SDS011;11554;51.106;3.684;2023-04-24T19:45:00;12.50;;;3.80;;
22774;SDS011;11554;51.106;3.684;2023-04-24T19:50:00;12.50;;;3.80;;
22774;SDS011;11554;51.106;3.684;2023-04-24T19:55:00;12.60;;;3.70;;
22774;SDS011;11554;51.106;3.684;2023-04-24T20:00:00;12.60;;;3.70;;
22774;SDS011;11554;51.106;3.684;2023-04-24T20:05:00;10.90;;;3.50;;
22774;SDS011;11554;51.106;3.684;2023-04-24T20:10:00;10.90;;;3.50;;
22774;SDS011;11554;51.106;3.684;2023-04-24T20:15:01;14.30;;;3.80;;
22774;SDS011;11554;51.106;3.684;2023-04-24T20:20:00;14.30;;;3.80;;
22774;SDS011;11554;51.106;3.684;2023-04-24T20:25:00;12.10;;;4.50;;
22774;SDS011;11554;51.106;3.684;2023-04-24T20:30:01;12.10;;;4.50;;
22774;SDS011;11554;51.106;3.684;2023-04-24T20:35:00;14.40;;;5.20;;
22774;SDS011;11554;51.106;3.684;2023-04-24T20:40:01;14.40;;;5.20;;
22774;SDS011;11554;51.106;3.684;2023-04-24T20:45:00;13.60;;;5.00;;
22774;SDS011;11554;51.106;3.684;2023-04-24T20:50:00;13.60;;;5.00;;
22774;SDS011;11554;51.106;3.684;2023-04-24T20:55:00;13.20;;;4.80;;
22774;SDS011;11554;51.106;3.684;2023-04-24T21:00:00;13.20;;;4.80;;
22774;SDS011;11554;51.106;3.684;2023-04-24T21:05:00;16.80;;;4.90;;
22774;SDS011;11554;51.106;3.684;2023-04-24T21:10:00;16.80;;;4.90;;
22774;SDS011;11554;51.106;3.684;2023-04-24T21:15:00;18.30;;;4.90;;
22774;SDS011;11554;51.106;3.684;2023-04-24T21:20:00;18.30;;;4.90;;
22774;SDS011;11554;51.106;3.684;2023-04-24T21:25:00;17.20;;;5.10;;
22774;SDS011;11554;51.106;3.684;2023-04-24T21:30:00;17.20;;;5.10;;
22774;SDS011;11554;51.106;3.684;2023-04-24T21:35:00;16.80;;;4.90;;
22774;SDS011;11554;51.106;3.684;2023-04-24T21:40:00;16.80;;;4.90;;
22774;SDS011;11554;51.106;3.684;2023-04-24T21:45:00;19.30;;;5.50;;
22774;SDS011;11554;51.106;3.684;2023-04-24T21:50:00;19.30;;;5.50;;
22774;SDS011;11554;51.106;3.684;2023-04-24T21:55:00;14.50;;;4.70;;
22774;SDS011;11554;51.106;3.684;2023-04-24T22:00:00;14.50;;;4.70;;
22774;SDS011;11554;51.106;3.684;2023-04-24T22:05:00;20.40;;;5.60;;
22774;SDS011;11554;51.106;3.684;2023-04-24T22:10:00;20.40;;;5.60;;
22774;SDS011;11554;51.106;3.684;2023-04-24T22:15:00;16.10;;;5.20;;
22774;SDS011;11554;51.106;3.684;2023-04-24T22:20:01;16.10;;;5.20;;
22774;SDS011;11554;51.106;3.684;2023-04-24T22:25:00;20.90;;;4.20;;
22774;SDS011;11554;51.106;3.684;2023-04-24T22:30:00;20.90;;;4.20;;
22774;SDS011;11554;51.106;3.684;2023-04-24T22:35:00;19.40;;;4.10;;
22774;SDS011;11554;51.106;3.684;2023-04-24T22:40:00;19.40;;;4.10;;
22774;SDS011;11554;51.106;3.684;2023-04-24T22:45:00;15.00;;;4.10;;
22774;SDS011;11554;51.106;3.684;2023-04-24T22:50:00;15.00;;;4.10;;
22774;SDS011;11554;51.106;3.684;2023-04-24T22:55:00;18.20;;;4.90;;
22774;SDS011;11554;51.106;3.684;2023-04-24T23:00:02;18.20;;;4.90;;
22774;SDS011;11554;51.106;3.684;2023-04-24T23:05:00;17.00;;;4.70;;
22774;SDS011;11554;51.106;3.684;2023-04-24T23:10:01;17.00;;;4.70;;
22774;SDS011;11554;51.106;3.684;2023-04-24T23:15:00;14.60;;;4.40;;
22774;SDS011;11554;51.106;3.684;2023-04-24T23:20:00;14.60;;;4.40;;
22774;SDS011;11554;51.106;3.684;2023-04-24T23:25:00;16.70;;;4.50;;
22774;SDS011;11554;51.106;3.684;2023-04-24T23:30:00;16.70;;;4.50;;
22774;SDS011;11554;51.106;3.684;2023-04-24T23:35:00;15.30;;;4.60;;
22774;SDS011;11554;51.106;3.684;2023-04-24T23:40:00;15.30;;;4.60;;
22774;SDS011;11554;51.106;3.684;2023-04-24T23:45:00;17.60;;;5.10;;
22774;SDS011;11554;51.106;3.684;2023-04-24T23:50:00;17.60;;;5.10;;
22774;SDS011;11554;51.106;3.684;2023-04-24T23:55:00;17.00;;;4.40;;
